Time;durP1;ratioP1;P1;durP2;ratioP2;P2;SDS_P1;SDS_P2;PMS_P1;PMS_P2;Temp;Humidity;BMP_temperature;BMP_pressure;BME280_temperature;BME280_humidity;BME280_pressure;Samples;Min_cycle;Max_cycle;Signal;HPM_P1;HPM_P2
2021/06/10 00:01:54;;;;;;;21.40;19.90;;;;;;;17.32;90.78;100928.34;5102297;28;20240;-75
2021/06/10 00:04:20;;;;;;;21.40;20.10;;;;;;;17.38;90.21;100933.38;5103313;28;20775;-76
2021/06/10 00:06:46;;;;;;;23.53;21.90;;;;;;;17.38;90.39;100933.38;5106953;28;20231;-76
2021/06/10 00:09:12;;;;;;;21.10;19.70;;;;;;;17.41;90.28;100931.47;5106832;28;20208;-76
2021/06/10 00:11:38;;;;;;;22.83;21.20;;;;;;;17.49;89.43;100932.97;5106850;28;20219;-75
2021/06/10 00:14:05;;;;;;;20.33;19.03;;;;;;;17.46;89.92;100928.66;5105938;28;20598;-76
2021/06/10 00:16:31;;;;;;;21.33;19.83;;;;;;;17.43;90.11;100928.78;5106539;27;20388;-75
2021/06/10 00:18:57;;;;;;;23.03;21.33;;;;;;;17.37;90.07;100926.38;5106423;28;20524;-76
2021/06/10 00:21:23;;;;;;;21.70;20.10;;;;;;;17.31;90.23;100930.13;5106263;28;20291;-76
2021/06/10 00:23:49;;;;;;;22.20;20.50;;;;;;;17.23;90.57;100927.78;5106104;28;20223;-75
2021/06/10 00:26:15;;;;;;;23.47;21.77;;;;;;;17.22;90.56;100935.75;5106185;28;20409;-76
2021/06/10 00:28:41;;;;;;;23.27;20.93;;;;;;;17.22;90.55;100934.00;5105995;28;20209;-75
2021/06/10 00:31:08;;;;;;;21.83;20.43;;;;;;;17.18;90.46;100935.00;5106307;28;20209;-75
2021/06/10 00:33:34;;;;;;;22.70;21.10;;;;;;;17.23;90.16;100933.06;5105749;27;20252;-76
2021/06/10 00:35:59;;;;;;;21.77;20.27;;;;;;;17.29;89.38;100924.03;5105849;28;20227;-75
2021/06/10 00:38:25;;;;;;;22.70;21.03;;;;;;;17.32;89.25;100926.53;5106319;27;20283;-76
2021/06/10 00:40:51;;;;;;;21.03;19.63;;;;;;;17.37;88.99;100926.38;5105997;28;20211;-75
2021/06/10 00:43:17;;;;;;;20.70;19.33;;;;;;;17.29;89.36;100931.13;5105024;28;20209;-75
2021/06/10 00:45:43;;;;;;;22.37;20.67;;;;;;;17.31;89.14;100926.63;5105428;28;20747;-76
2021/06/10 00:48:10;;;;;;;21.83;20.33;;;;;;;17.27;89.23;100931.16;5105576;28;20528;-75
2021/06/10 00:50:39;;;;;;;22.27;20.70;;;;;;;17.29;89.14;100923.19;5105641;28;20259;-75
2021/06/10 00:53:05;;;;;;;22.07;20.60;;;;;;;17.26;89.15;100925.03;5105601;28;20246;-75
2021/06/10 00:55:31;;;;;;;21.97;20.57;;;;;;;17.22;89.60;100922.56;5105699;27;20227;-75
2021/06/10 00:57:57;;;;;;;21.93;20.23;;;;;;;17.21;89.71;100924.34;5105562;28;20199;-76
2021/06/10 01:00:24;;;;;;;20.13;18.83;;;;;;;17.25;89.82;100918.03;5105824;28;20296;-76
2021/06/10 01:02:50;;;;;;;22.53;20.80;;;;;;;17.27;89.51;100910.91;5105011;28;20689;-76
2021/06/10 01:05:17;;;;;;;21.47;20.07;;;;;;;17.25;89.69;100918.03;5105213;28;20721;-76
2021/06/10 01:07:53;;;;;;;21.97;20.47;;;;;;;17.10;89.91;100926.53;5105465;28;20331;-76
2021/06/10 01:10:27;;;;;;;23.73;22.30;;;;;;;17.07;89.87;100922.22;5105463;28;20581;-76
2021/06/10 01:13:00;;;;;;;21.97;20.47;;;;;;;17.00;90.10;100933.94;5105146;28;20794;-75
2021/06/10 01:15:29;;;;;;;22.50;21.00;;;;;;;16.88;90.77;100929.13;5104657;28;20224;-76
2021/06/10 01:17:55;;;;;;;22.50;21.03;;;;;;;16.80;91.35;100929.38;5104643;28;20212;-75
2021/06/10 01:20:27;;;;;;;23.20;21.50;;;;;;;16.71;91.60;100931.47;5105323;28;20208;-76
2021/06/10 01:23:02;;;;;;;24.43;22.83;;;;;;;16.58;92.53;100938.97;5104910;28;20211;-75
2021/06/10 01:25:38;;;;;;;24.23;22.70;;;;;;;16.43;93.12;100928.09;5105043;28;20231;-76
2021/06/10 01:28:09;;;;;;;24.60;22.50;;;;;;;16.38;93.41;100930.00;5105124;28;20589;-75
2021/06/10 01:30:37;;;;;;;24.83;23.07;;;;;;;16.35;93.69;100930.13;5105318;28;20264;-75
2021/06/10 01:33:08;;;;;;;24.13;22.63;;;;;;;16.40;93.56;100929.97;5104638;28;20261;-75
2021/06/10 01:35:38;;;;;;;26.63;24.53;;;;;;;16.44;93.35;100923.66;5106841;28;20741;-76
2021/06/10 01:38:06;;;;;;;25.40;23.60;;;;;;;16.46;93.06;100922.69;5107303;28;20492;-75
2021/06/10 01:40:33;;;;;;;25.63;23.93;;;;;;;16.56;92.68;100932.91;5108279;28;20253;-75
2021/06/10 01:43:00;;;;;;;24.13;22.53;;;;;;;16.64;92.09;100923.78;5107047;28;20195;-75
2021/06/10 01:45:28;;;;;;;24.77;22.97;;;;;;;16.62;92.15;100923.00;5104942;28;20223;-76
2021/06/10 01:47:54;;;;;;;23.57;21.87;;;;;;;16.60;91.86;100918.69;5104647;28;20227;-76
2021/06/10 01:50:22;;;;;;;24.63;22.77;;;;;;;16.58;92.15;100916.13;5104285;28;20215;-75
2021/06/10 01:52:49;;;;;;;23.70;22.20;;;;;;;16.63;91.70;100918.56;5104411;28;20207;-75
2021/06/10 01:55:18;;;;;;;24.83;22.77;;;;;;;16.67;91.59;100907.88;5104269;28;20219;-76
2021/06/10 01:57:46;;;;;;;24.87;23.13;;;;;;;16.69;91.31;100907.84;5104499;28;20215;-76
2021/06/10 02:00:14;;;;;;;24.50;22.67;;;;;;;16.71;91.04;100906.00;5104179;28;20616;-76
2021/06/10 02:02:42;;;;;;;24.73;22.77;;;;;;;16.66;91.27;100900.88;5103757;28;20214;-75
2021/06/10 02:05:10;;;;;;;24.70;22.77;;;;;;;16.62;91.41;100901.06;5104154;28;20737;-75
2021/06/10 02:07:37;;;;;;;26.20;24.20;;;;;;;16.53;92.09;100893.47;5104017;28;20458;-75
2021/06/10 02:10:06;;;;;;;24.23;22.50;;;;;;;16.52;92.20;100895.25;5104636;27;20213;-76
2021/06/10 02:12:32;;;;;;;25.23;23.43;;;;;;;16.48;92.25;100896.28;5104121;28;20214;-76
2021/06/10 02:15:00;;;;;;;25.60;23.90;;;;;;;16.44;92.43;100895.53;5103769;28;20244;-76
2021/06/10 02:17:26;;;;;;;26.77;24.77;;;;;;;16.48;92.14;100891.88;5104073;27;20648;-76
2021/06/10 02:19:53;;;;;;;25.33;23.20;;;;;;;16.55;91.81;100889.00;5104559;28;20286;-76
2021/06/10 02:22:19;;;;;;;24.93;23.23;;;;;;;16.53;91.78;100889.09;5103763;28;20227;-76
2021/06/10 02:24:48;;;;;;;25.50;23.80;;;;;;;16.56;91.55;100888.09;5103689;28;20593;-76
2021/06/10 02:27:14;;;;;;;24.37;22.37;;;;;;;16.54;91.81;100880.25;5103622;28;20717;-76
2021/06/10 02:29:40;;;;;;;24.97;23.13;;;;;;;16.54;91.75;100882.88;5103810;28;20207;-76
2021/06/10 02:32:07;;;;;;;25.20;23.40;;;;;;;16.46;92.25;100871.75;5103230;28;20214;-76
2021/06/10 02:34:33;;;;;;;25.33;23.33;;;;;;;16.46;92.34;100877.88;5103608;28;20715;-75
2021/06/10 02:37:01;;;;;;;26.13;24.33;;;;;;;16.44;92.26;100877.09;5103729;28;20199;-76
2021/06/10 02:39:27;;;;;;;27.43;25.27;;;;;;;16.45;92.42;100884.09;5103808;28;20207;-76
2021/06/10 02:41:55;;;;;;;26.70;24.37;;;;;;;16.49;92.39;100879.56;5103781;28;20207;-75
2021/06/10 02:44:25;;;;;;;28.07;25.83;;;;;;;16.55;92.20;100881.97;5103739;28;20230;-76
2021/06/10 02:46:51;;;;;;;25.37;23.30;;;;;;;16.61;91.75;100880.88;5103027;28;20224;-76
2021/06/10 02:49:19;;;;;;;24.27;22.73;;;;;;;16.57;91.66;100877.50;5103685;28;20750;-75
2021/06/10 02:51:45;;;;;;;26.13;24.13;;;;;;;16.56;91.75;100882.84;5103276;28;20485;-75
2021/06/10 02:54:18;;;;;;;24.77;22.97;;;;;;;16.48;92.03;100878.69;5103329;28;20230;-76
2021/06/10 02:56:45;;;;;;;25.70;23.90;;;;;;;16.48;91.84;100875.19;5103099;28;20692;-75
2021/06/10 02:59:14;;;;;;;27.60;25.53;;;;;;;16.53;91.50;100875.91;5103500;28;20200;-75
2021/06/10 03:01:43;;;;;;;27.43;25.23;;;;;;;16.57;91.33;100882.78;5103146;28;20261;-76
2021/06/10 03:04:10;;;;;;;25.63;23.83;;;;;;;16.53;91.38;100882.94;5103219;28;20224;-76
2021/06/10 03:06:37;;;;;;;24.43;22.80;;;;;;;16.55;91.38;100884.63;5103237;28;20234;-76
2021/06/10 03:09:03;;;;;;;24.77;22.67;;;;;;;16.55;91.23;100878.47;5102996;28;20415;-75
2021/06/10 03:11:31;;;;;;;25.00;23.30;;;;;;;16.50;91.55;100873.38;5103369;28;20212;-76
2021/06/10 03:13:58;;;;;;;25.17;23.20;;;;;;;16.49;91.59;100876.94;5102439;28;20223;-75
2021/06/10 03:16:24;;;;;;;25.07;23.47;;;;;;;16.47;91.44;100876.09;5103170;28;20208;-76
2021/06/10 03:18:52;;;;;;;22.30;20.67;;;;;;;16.50;91.49;100876.00;5102412;28;20582;-76
2021/06/10 03:21:18;;;;;;;23.10;21.53;;;;;;;16.64;90.97;100881.63;5103120;28;20855;-76
2021/06/10 03:23:44;;;;;;;21.23;19.87;;;;;;;16.70;90.78;100880.53;5102224;28;20224;-76
2021/06/10 03:26:10;;;;;;;21.07;19.47;;;;;;;16.81;90.10;100882.78;5102824;28;20207;-76
2021/06/10 03:28:37;;;;;;;19.13;17.47;;;;;;;16.87;89.37;100885.22;5102961;28;20645;-76
2021/06/10 03:31:05;;;;;;;18.93;17.57;;;;;;;16.92;88.96;100888.53;5102961;28;20199;-76
2021/06/10 03:33:31;;;;;;;19.03;17.73;;;;;;;16.95;88.51;100887.56;5101997;28;20479;-76
2021/06/10 03:35:57;;;;;;;18.73;17.53;;;;;;;16.97;88.06;100885.75;5103153;28;20728;-75
2021/06/10 03:38:24;;;;;;;22.40;20.83;;;;;;;17.02;87.66;100881.13;5102311;28;20231;-75
2021/06/10 03:40:53;;;;;;;21.13;19.37;;;;;;;17.04;87.19;100881.91;5102056;28;20752;-76
2021/06/10 03:43:20;;;;;;;21.47;19.87;;;;;;;17.09;86.87;100873.84;5102440;28;20230;-76
2021/06/10 03:45:47;;;;;;;20.93;19.30;;;;;;;17.04;86.55;100885.41;5102925;28;20204;-76
2021/06/10 03:48:14;;;;;;;21.37;19.73;;;;;;;16.97;86.72;100891.00;5102706;28;20237;-75
2021/06/10 03:50:40;;;;;;;21.00;19.60;;;;;;;17.04;86.30;100890.69;5102466;28;20205;-76
2021/06/10 03:53:07;;;;;;;22.43;20.40;;;;;;;17.09;86.10;100893.16;5102146;28;20253;-76
2021/06/10 03:55:34;;;;;;;19.77;18.47;;;;;;;17.06;85.63;100899.41;5102343;28;20721;-76
2021/06/10 03:58:00;;;;;;;18.90;17.67;;;;;;;17.09;85.73;100905.50;5102606;28;20207;-75
2021/06/10 04:00:26;;;;;;;20.07;18.30;;;;;;;17.01;85.91;100903.16;5102757;28;20223;-76
2021/06/10 04:02:56;;;;;;;18.97;17.27;;;;;;;17.00;85.78;100898.78;5102382;28;20208;-76
2021/06/10 04:05:23;;;;;;;19.43;17.93;;;;;;;16.97;85.95;100899.78;5102661;28;20224;-76
2021/06/10 04:07:49;;;;;;;19.27;17.73;;;;;;;16.95;86.02;100901.59;5102018;28;20733;-76
2021/06/10 04:10:15;;;;;;;20.73;19.00;;;;;;;16.97;86.29;100899.78;5102786;28;20207;-76
2021/06/10 04:12:41;;;;;;;20.63;19.17;;;;;;;16.91;86.31;100905.28;5102375;28;20296;-76
2021/06/10 04:15:08;;;;;;;19.93;18.50;;;;;;;16.94;86.37;100899.88;5102470;28;20233;-76
2021/06/10 04:17:33;;;;;;;20.80;19.30;;;;;;;16.98;86.51;100895.34;5102323;28;20222;-76
2021/06/10 04:20:01;;;;;;;20.67;18.97;;;;;;;16.99;86.58;100892.66;5102071;28;20209;-76
2021/06/10 04:22:27;;;;;;;19.43;18.10;;;;;;;17.04;86.29;100900.38;5102152;28;20228;-76
2021/06/10 04:24:52;;;;;;;18.10;16.90;;;;;;;17.13;85.92;100901.84;5102396;28;20337;-76
2021/06/10 04:27:18;;;;;;;17.67;16.50;;;;;;;17.17;85.45;100900.78;5102506;28;20222;-76
2021/06/10 04:29:44;;;;;;;18.10;16.80;;;;;;;17.21;85.32;100897.09;5102069;28;20261;-76
2021/06/10 04:32:10;;;;;;;18.33;17.20;;;;;;;17.23;85.47;100895.25;5102279;28;20649;-76
2021/06/10 04:34:36;;;;;;;17.93;16.83;;;;;;;17.23;85.27;100885.56;5101957;28;20228;-76
2021/06/10 04:37:04;;;;;;;17.00;15.90;;;;;;;17.31;85.23;100892.34;5102924;28;20268;-76
2021/06/10 04:39:30;;;;;;;16.63;15.53;;;;;;;17.38;84.86;100885.88;5102228;28;20256;-76
2021/06/10 04:41:56;;;;;;;16.53;15.27;;;;;;;17.40;84.83;100884.91;5101758;28;20552;-76
2021/06/10 04:44:22;;;;;;;17.73;16.53;;;;;;;17.34;85.49;100894.84;5102330;28;20221;-76
2021/06/10 04:46:48;;;;;;;18.97;17.50;;;;;;;17.43;85.50;100894.47;5101828;28;20540;-76
2021/06/10 04:49:14;;;;;;;21.10;19.47;;;;;;;17.51;85.45;100892.38;5102127;28;20591;-76
2021/06/10 04:51:40;;;;;;;18.33;17.07;;;;;;;17.59;85.34;100887.66;5104803;28;20609;-76
2021/06/10 04:54:07;;;;;;;18.00;16.90;;;;;;;17.63;85.31;100886.59;5105483;28;20263;-76
2021/06/10 04:56:33;;;;;;;19.73;18.33;;;;;;;17.60;85.39;100891.13;5105796;27;20210;-76
2021/06/10 04:58:59;;;;;;;19.10;17.77;;;;;;;17.66;85.32;100886.47;5106234;28;20632;-75
2021/06/10 05:01:24;;;;;;;20.33;19.00;;;;;;;17.69;85.62;100888.13;5104754;28;20569;-74
2021/06/10 05:03:50;;;;;;;17.27;16.23;;;;;;;17.71;85.24;100893.34;5105413;28;20236;-74
2021/06/10 05:06:16;;;;;;;17.30;16.03;;;;;;;17.81;85.18;100887.59;5105547;28;20206;-74
2021/06/10 05:08:42;;;;;;;20.00;18.60;;;;;;;17.67;85.16;100890.81;5105766;28;20230;-76
2021/06/10 05:11:09;;;;;;;21.87;20.37;;;;;;;17.31;86.30;100893.19;5105930;28;20290;-74
2021/06/10 05:13:35;;;;;;;23.43;21.63;;;;;;;17.16;87.33;100897.25;5104813;28;20207;-75
2021/06/10 05:16:01;;;;;;;22.40;20.90;;;;;;;17.03;88.23;100896.91;5105759;27;20204;-75
2021/06/10 05:18:27;;;;;;;22.50;21.10;;;;;;;17.00;88.77;100897.00;5105665;27;20288;-74
2021/06/10 05:20:53;;;;;;;24.53;22.93;;;;;;;16.97;89.39;100897.13;5105713;27;20215;-74
2021/06/10 05:23:19;;;;;;;23.47;21.87;;;;;;;17.10;88.94;100899.28;5105813;27;20203;-74
2021/06/10 05:25:45;;;;;;;23.93;22.17;;;;;;;16.99;89.71;100892.66;5105368;28;20221;-74
2021/06/10 05:28:12;;;;;;;23.10;21.60;;;;;;;17.13;89.80;100894.75;5105537;27;20231;-74
2021/06/10 05:30:38;;;;;;;25.30;23.50;;;;;;;17.20;90.07;100888.31;5105771;27;20200;-75
2021/06/10 05:33:04;;;;;;;24.93;23.20;;;;;;;17.34;89.87;100893.03;5105372;27;20199;-74
2021/06/10 05:35:30;;;;;;;23.90;22.20;;;;;;;17.35;90.07;100899.19;5105865;27;20228;-75
2021/06/10 05:37:56;;;;;;;23.63;21.67;;;;;;;17.53;89.51;100903.72;5105644;27;20287;-75
2021/06/10 05:40:22;;;;;;;21.53;19.77;;;;;;;17.70;89.59;100907.47;5105294;27;20201;-74
2021/06/10 05:42:48;;;;;;;21.93;20.43;;;;;;;17.85;89.11;100902.44;5105206;27;20287;-74
2021/06/10 05:45:15;;;;;;;20.57;19.17;;;;;;;17.95;87.87;100902.06;5105302;27;20231;-75
2021/06/10 05:47:41;;;;;;;22.20;20.83;;;;;;;17.94;87.65;100910.88;5105346;27;20230;-74
2021/06/10 05:50:08;;;;;;;21.90;20.17;;;;;;;17.99;87.28;100906.28;5105981;27;20245;-75
2021/06/10 05:52:35;;;;;;;22.70;20.63;;;;;;;17.98;87.12;100904.59;5104476;27;20702;-74
2021/06/10 05:55:00;;;;;;;22.77;21.17;;;;;;;18.00;87.28;100910.66;5105104;27;20722;-74
2021/06/10 05:57:27;;;;;;;22.40;21.00;;;;;;;17.80;88.02;100909.69;5105571;27;20235;-75
2021/06/10 05:59:52;;;;;;;22.53;21.13;;;;;;;17.64;88.02;100911.19;5104755;27;20200;-75
2021/06/10 06:02:20;;;;;;;21.50;20.10;;;;;;;17.58;88.10;100911.47;5103903;27;21037;-74
2021/06/10 06:04:45;;;;;;;22.77;21.20;;;;;;;17.60;88.74;100909.63;5105292;27;20223;-74
2021/06/10 06:07:12;;;;;;;22.83;21.20;;;;;;;17.73;88.79;100913.47;5104918;27;20746;-74
2021/06/10 06:09:38;;;;;;;20.90;19.60;;;;;;;17.87;88.81;100907.66;5106090;27;21090;-75
2021/06/10 06:12:07;;;;;;;21.43;20.13;;;;;;;17.94;88.98;100914.41;5105101;27;20218;-73
2021/06/10 06:14:34;;;;;;;20.13;18.93;;;;;;;17.89;88.55;100912.88;5104550;27;20623;-75
2021/06/10 06:17:02;;;;;;;21.30;19.87;;;;;;;17.94;89.13;100911.78;5104702;27;20207;-75
2021/06/10 06:19:29;;;;;;;21.53;19.57;;;;;;;18.08;88.31;100921.75;5104474;27;20230;-74
2021/06/10 06:21:55;;;;;;;21.63;20.03;;;;;;;18.14;87.67;100918.84;5104745;27;20680;-76
2021/06/10 06:24:20;;;;;;;21.17;19.80;;;;;;;18.26;86.48;100926.25;5104860;27;20544;-75
2021/06/10 06:26:46;;;;;;;20.80;19.37;;;;;;;18.32;86.39;100924.28;5104497;27;20232;-75
2021/06/10 06:29:12;;;;;;;20.53;19.03;;;;;;;18.46;85.81;100930.66;5104678;27;20304;-74
2021/06/10 06:31:38;;;;;;;22.87;19.90;;;;;;;18.62;85.88;100927.34;5103970;27;20207;-75
2021/06/10 06:34:04;;;;;;;21.50;19.87;;;;;;;18.65;84.86;100929.84;5104276;27;20598;-75
2021/06/10 06:36:32;;;;;;;20.97;19.50;;;;;;;18.74;84.95;100941.81;5104975;27;20197;-75
2021/06/10 06:38:58;;;;;;;19.53;18.33;;;;;;;18.84;84.33;100936.03;5105226;27;20206;-74
2021/06/10 06:41:24;;;;;;;19.20;17.90;;;;;;;18.90;84.99;100939.34;5104756;27;20293;-75
2021/06/10 06:43:50;;;;;;;18.70;17.47;;;;;;;18.99;84.33;100936.28;5103775;27;20220;-75
2021/06/10 06:46:16;;;;;;;18.13;16.93;;;;;;;19.07;84.00;100938.56;5104498;27;20231;-74
2021/06/10 06:48:41;;;;;;;20.07;18.33;;;;;;;19.19;84.72;100938.88;5104696;27;20292;-76
2021/06/10 06:51:09;;;;;;;17.90;16.80;;;;;;;19.28;82.12;100937.56;5103496;27;20269;-74
2021/06/10 06:53:36;;;;;;;18.30;17.03;;;;;;;19.31;82.04;100942.72;5103915;27;20263;-75
2021/06/10 06:56:04;;;;;;;18.00;16.80;;;;;;;19.30;82.23;100941.00;5104603;27;20196;-74
2021/06/10 06:58:30;;;;;;;18.77;17.40;;;;;;;19.19;82.25;100936.22;5104324;27;20269;-74
2021/06/10 07:00:56;;;;;;;18.77;17.30;;;;;;;19.28;83.23;100942.84;5104342;27;20204;-74
2021/06/10 07:03:22;;;;;;;19.20;17.57;;;;;;;19.34;83.49;100939.91;5103828;27;20200;-75
2021/06/10 07:05:49;;;;;;;18.83;17.53;;;;;;;19.41;82.87;100937.84;5105719;27;20197;-74
2021/06/10 07:08:15;;;;;;;18.97;17.63;;;;;;;19.43;82.38;100933.34;5104643;27;20222;-76
2021/06/10 07:10:42;;;;;;;18.30;17.10;;;;;;;19.54;82.51;100931.00;5104375;27;20204;-78
2021/06/10 07:13:08;;;;;;;19.00;17.67;;;;;;;19.56;82.09;100934.47;5101443;27;20205;-76
2021/06/10 07:15:36;;;;;;;18.63;17.23;;;;;;;19.59;81.95;100936.09;5103103;27;20222;-75
2021/06/10 07:18:02;;;;;;;19.17;17.77;;;;;;;19.63;81.51;100932.38;5103657;28;20210;-77
2021/06/10 07:20:28;;;;;;;19.07;17.77;;;;;;;19.72;82.25;100925.78;5103292;28;20216;-75
2021/06/10 07:22:54;;;;;;;18.33;17.13;;;;;;;19.86;82.53;100933.94;5103471;27;20542;-75
2021/06/10 07:25:20;;;;;;;17.47;16.07;;;;;;;19.95;82.92;100932.59;5103925;27;20218;-76
2021/06/10 07:27:48;;;;;;;18.20;16.70;;;;;;;20.03;81.51;100923.31;5104028;27;20225;-75
2021/06/10 07:30:16;;;;;;;18.40;17.20;;;;;;;20.17;81.71;100930.56;5104400;27;20711;-75
2021/06/10 07:32:41;;;;;;;18.90;17.53;;;;;;;20.29;81.08;100934.38;5103297;27;20675;-75
2021/06/10 07:35:08;;;;;;;19.77;18.33;;;;;;;20.33;79.38;100929.78;5104466;28;20313;-75
2021/06/10 07:37:34;;;;;;;19.13;17.93;;;;;;;20.42;79.15;100934.63;5105315;27;20887;-76
2021/06/10 07:40:00;;;;;;;18.70;17.50;;;;;;;20.46;78.32;100932.66;5104123;28;20202;-77
2021/06/10 07:42:27;;;;;;;18.90;17.57;;;;;;;20.53;78.80;100940.19;5103472;27;20744;-76
2021/06/10 07:44:54;;;;;;;18.83;17.73;;;;;;;20.59;78.41;100931.97;5103071;28;20642;-76
2021/06/10 07:47:20;;;;;;;18.70;17.40;;;;;;;20.59;78.24;100937.28;5103181;28;20225;-77
2021/06/10 07:49:46;;;;;;;18.27;17.07;;;;;;;20.57;78.06;100941.78;5103740;28;20288;-76
2021/06/10 07:52:11;;;;;;;18.37;17.07;;;;;;;20.67;78.57;100938.66;5103173;28;20753;-77
2021/06/10 07:54:41;;;;;;;19.20;17.90;;;;;;;20.66;79.80;100944.91;5103657;28;20223;-77
2021/06/10 07:57:09;;;;;;;17.53;16.33;;;;;;;20.74;80.08;100940.91;5103371;28;20290;-76
2021/06/10 07:59:35;;;;;;;18.93;17.60;;;;;;;20.80;80.00;100939.72;5103204;28;20206;-76
2021/06/10 08:02:03;;;;;;;17.70;16.70;;;;;;;20.86;80.73;100939.38;5103167;28;20390;-75
2021/06/10 08:04:31;;;;;;;19.23;17.80;;;;;;;20.83;77.80;100944.84;5103401;28;20237;-77
2021/06/10 08:06:57;;;;;;;19.20;17.90;;;;;;;20.77;77.53;100948.72;5103565;28;20564;-76
2021/06/10 08:09:22;;;;;;;18.90;17.60;;;;;;;20.78;78.18;100946.91;5102740;28;20581;-76
2021/06/10 08:11:48;;;;;;;19.73;18.07;;;;;;;20.83;77.59;100956.34;5102269;28;20202;-75
2021/06/10 08:14:14;;;;;;;19.10;17.70;;;;;;;20.93;76.54;100951.41;5103035;28;20270;-76
2021/06/10 08:16:40;;;;;;;17.43;15.97;;;;;;;21.02;76.73;100950.88;5103514;27;20502;-76
2021/06/10 08:19:07;;;;;;;18.57;17.17;;;;;;;21.17;76.83;100953.66;5102930;28;20232;-77
2021/06/10 08:21:33;;;;;;;19.70;18.30;;;;;;;20.88;75.92;100957.88;5103566;28;20202;-75
2021/06/10 08:23:59;;;;;;;19.37;17.73;;;;;;;20.96;77.51;100951.22;5102406;28;20225;-75
2021/06/10 08:26:25;;;;;;;18.10;16.90;;;;;;;21.06;76.23;100948.91;5105682;27;20222;-76
2021/06/10 08:28:51;;;;;;;18.40;17.30;;;;;;;21.22;75.82;100949.78;5106264;27;20226;-76
2021/06/10 08:31:17;;;;;;;20.07;18.67;;;;;;;21.16;74.16;100950.13;5107387;27;20283;-77
2021/06/10 08:33:43;;;;;;;19.00;17.63;;;;;;;21.25;74.69;100954.09;5106323;27;20230;-77
2021/06/10 08:36:11;;;;;;;19.43;18.13;;;;;;;21.30;75.64;100952.00;5106208;27;20421;-76
2021/06/10 08:38:38;;;;;;;18.60;17.50;;;;;;;21.39;74.89;100958.63;5107181;27;20245;-77
2021/06/10 08:41:04;;;;;;;19.70;17.80;;;;;;;21.51;74.25;100957.13;5107239;27;20224;-77
2021/06/10 08:43:30;;;;;;;19.03;17.70;;;;;;;21.54;73.01;100963.09;5107060;27;20273;-77
2021/06/10 08:46:01;;;;;;;19.60;18.40;;;;;;;21.57;72.37;100962.94;5105813;27;20752;-76
2021/06/10 08:48:30;;;;;;;18.80;17.50;;;;;;;21.56;72.53;100963.00;5107124;27;20717;-75
2021/06/10 08:50:57;;;;;;;19.30;17.80;;;;;;;21.55;72.47;100956.00;5107184;27;21079;-75
2021/06/10 08:53:24;;;;;;;18.93;17.70;;;;;;;21.63;72.73;100961.72;5106979;27;20206;-76
2021/06/10 08:55:51;;;;;;;17.87;16.67;;;;;;;21.75;73.61;100961.00;5107089;27;20202;-75
2021/06/10 08:58:17;;;;;;;18.77;17.57;;;;;;;21.80;72.48;100963.41;5106127;27;20420;-76
2021/06/10 09:00:43;;;;;;;19.47;18.27;;;;;;;21.86;71.23;100964.84;5106981;27;20256;-74
2021/06/10 09:03:09;;;;;;;18.90;17.67;;;;;;;21.93;71.38;100969.72;5105761;27;20233;-76
2021/06/10 09:05:35;;;;;;;18.47;17.30;;;;;;;22.00;72.04;100965.78;5106497;27;20229;-75
2021/06/10 09:08:04;;;;;;;19.20;17.80;;;;;;;22.08;71.58;100962.69;5105870;27;20233;-76
2021/06/10 09:10:34;;;;;;;20.53;18.97;;;;;;;22.08;70.54;100962.69;5106230;27;20202;-75
2021/06/10 09:13:01;;;;;;;18.47;17.27;;;;;;;22.21;69.54;100952.16;5106184;27;20206;-75
2021/06/10 09:15:29;;;;;;;20.53;19.13;;;;;;;22.17;68.94;100963.91;5125078;27;20806;-75
2021/06/10 09:17:55;;;;;;;20.97;19.20;;;;;;;22.17;69.57;100961.25;5126189;27;20225;-75
2021/06/10 09:20:42;;;;;;;20.00;18.80;;;;;;;22.26;69.88;100958.09;5122897;27;20242;-75
2021/06/10 09:23:17;;;;;;;20.43;18.90;;;;;;;22.32;67.57;100960.38;5106043;27;20214;-75
2021/06/10 09:25:46;;;;;;;18.93;17.53;;;;;;;22.46;67.31;100954.25;5107104;27;20771;-76
2021/06/10 09:28:13;;;;;;;17.63;16.43;;;;;;;22.65;67.36;100971.72;5110838;27;20475;-76
2021/06/10 09:30:41;;;;;;;17.80;16.60;;;;;;;22.71;67.23;100969.53;5117575;27;20626;-75
2021/06/10 09:33:12;;;;;;;19.07;17.87;;;;;;;22.76;67.35;100970.13;5105790;27;20216;-76
2021/06/10 09:35:40;;;;;;;18.53;17.33;;;;;;;22.82;66.68;100968.06;5106390;27;20230;-75
2021/06/10 09:38:07;;;;;;;18.67;17.30;;;;;;;22.96;67.56;100970.69;5104580;27;20287;-75
2021/06/10 09:40:34;;;;;;;18.90;17.60;;;;;;;23.04;67.56;100964.94;5106831;27;20205;-76
2021/06/10 09:43:02;;;;;;;19.93;18.60;;;;;;;23.01;67.01;100965.94;5105254;27;20204;-74
2021/06/10 09:45:30;;;;;;;20.03;18.60;;;;;;;23.03;66.19;100957.88;5105786;27;20232;-75
2021/06/10 09:48:00;;;;;;;19.73;18.50;;;;;;;23.13;64.65;100967.88;5106084;27;20227;-75
2021/06/10 09:50:28;;;;;;;20.43;19.20;;;;;;;22.95;65.30;100963.66;5105648;27;20645;-76
2021/06/10 09:52:56;;;;;;;20.13;18.83;;;;;;;22.99;65.51;100960.72;5113835;27;20219;-76
2021/06/10 09:55:29;;;;;;;19.13;18.00;;;;;;;23.14;64.97;100964.25;5105577;27;20230;-76
2021/06/10 09:57:55;;;;;;;19.77;18.37;;;;;;;23.27;65.38;100959.00;5105248;27;20249;-75
2021/06/10 10:00:25;;;;;;;22.10;20.77;;;;;;;23.26;64.44;100959.94;5105308;27;20214;-74
2021/06/10 10:02:52;;;;;;;21.33;20.10;;;;;;;23.22;65.01;100957.59;5105108;27;20615;-74
2021/06/10 10:05:22;;;;;;;20.87;19.37;;;;;;;23.25;65.32;100962.69;5104615;27;20257;-75
2021/06/10 10:07:48;;;;;;;21.43;19.63;;;;;;;23.25;64.94;100958.25;5106166;27;20228;-75
2021/06/10 10:10:15;;;;;;;21.13;19.83;;;;;;;23.19;64.91;100959.50;5105511;27;20218;-75
2021/06/10 10:12:43;;;;;;;23.47;21.67;;;;;;;23.19;63.60;100956.81;5104952;27;20204;-75
2021/06/10 10:15:10;;;;;;;19.70;18.60;;;;;;;23.31;63.04;100955.19;5104531;27;20621;-74
2021/06/10 10:17:38;;;;;;;22.37;20.97;;;;;;;23.28;59.57;100960.69;5105395;27;20219;-75
2021/06/10 10:20:05;;;;;;;24.10;22.60;;;;;;;23.35;57.10;100959.38;5105628;27;20195;-75
2021/06/10 10:22:31;;;;;;;23.00;21.60;;;;;;;23.34;58.51;100952.31;5105090;27;20206;-74
2021/06/10 10:24:58;;;;;;;22.00;20.33;;;;;;;23.36;58.37;100968.22;5105057;27;20707;-76
2021/06/10 10:27:25;;;;;;;22.63;21.13;;;;;;;23.51;58.84;100956.56;5104262;27;20294;-74
2021/06/10 10:29:52;;;;;;;19.73;18.43;;;;;;;23.62;60.58;100947.00;5103953;27;20204;-75
2021/06/10 10:32:22;;;;;;;21.57;20.17;;;;;;;23.74;60.97;100948.84;5104425;27;20197;-75
2021/06/10 10:34:50;;;;;;;22.50;21.10;;;;;;;23.71;58.17;100941.94;5104905;27;20926;-75
2021/06/10 10:37:17;;;;;;;22.03;20.43;;;;;;;23.65;58.70;100939.66;5104488;27;20623;-76
2021/06/10 10:39:44;;;;;;;20.77;19.57;;;;;;;23.77;60.27;100946.88;5104112;28;20206;-76
2021/06/10 10:42:10;;;;;;;18.83;17.63;;;;;;;23.87;60.83;100940.94;5105167;27;20213;-78
2021/06/10 10:44:36;;;;;;;21.50;19.83;;;;;;;24.03;59.11;100946.09;5104807;27;20224;-76
2021/06/10 10:47:05;;;;;;;19.17;17.80;;;;;;;24.06;59.87;100944.06;5104353;27;20215;-75
2021/06/10 10:49:40;;;;;;;20.23;18.73;;;;;;;24.09;58.62;100933.19;5104765;27;20289;-74
2021/06/10 10:52:28;;;;;;;18.10;16.87;;;;;;;24.26;60.65;100934.72;5103955;27;20702;-75
2021/06/10 10:55:12;;;;;;;17.43;16.33;;;;;;;24.29;59.79;100939.00;5104083;27;20304;-76
2021/06/10 10:57:39;;;;;;;16.80;15.50;;;;;;;24.27;56.04;100939.09;5104604;28;20209;-75
2021/06/10 11:00:07;;;;;;;18.43;17.13;;;;;;;23.85;54.99;100934.88;5104959;27;20713;-75
2021/06/10 11:02:36;;;;;;;16.07;15.07;;;;;;;23.90;55.52;100941.56;5104171;27;20259;-75
2021/06/10 11:05:05;;;;;;;14.70;13.83;;;;;;;24.08;56.33;100934.19;5104666;28;20602;-76
2021/06/10 11:07:51;;;;;;;14.57;13.67;;;;;;;24.23;54.25;100928.75;5104373;27;20233;-75
2021/06/10 11:10:56;;;;;;;14.10;13.17;;;;;;;24.14;54.70;100936.41;5103647;27;20225;-75